Time;durP1;ratioP1;P1;durP2;ratioP2;P2;SDS_P1;SDS_P2;PMS_P1;PMS_P2;Temp;Humidity;BMP_temperature;BMP_pressure;BME280_temperature;BME280_humidity;BME280_pressure;Samples;Min_cycle;Max_cycle;Signal;HPM_P1;HPM_P2
2023/01/04 00:00:45;;;;;;;;;;;;;;;8.44;100.00;100792.19;5064620;28;20402;-85
2023/01/04 00:03:10;;;;;;;;;;;;;;;8.47;100.00;100799.19;5059399;28;20343;-89
2023/01/04 00:05:38;;;;;;;;;;;;;;;8.47;100.00;100792.16;5038035;28;19974;-86
2023/01/04 00:08:03;;;;;;;;;;;;;;;8.50;100.00;100783.28;5036713;28;19924;-86
2023/01/04 00:10:29;;;;;;;;;;;;;;;8.49;100.00;100782.41;5055632;28;19921;-85
2023/01/04 00:12:56;;;;;;;;;;;;;;;8.51;100.00;100787.66;5055026;28;19935;-89
2023/01/04 00:15:21;;;;;;;;;;;;;;;8.50;100.00;100784.16;5055661;28;19928;-85
2023/01/04 00:17:47;;;;;;;;;;;;;;;8.53;100.00;100770.00;5055603;28;19917;-85
2023/01/04 00:20:20;;;;;;;;;;;;;;;8.54;100.00;100775.28;5055371;28;19917;-86
2023/01/04 00:22:50;;;;;;;;;;;;;;;8.56;100.00;100767.31;5054406;28;19967;-88
2023/01/04 00:25:15;;;;;;;;;;;;;;;8.58;100.00;100764.66;5055265;28;20007;-85
2023/01/04 00:27:41;;;;;;;;;;;;;;;8.57;100.00;100760.25;5055320;28;20020;-85
2023/01/04 00:30:06;;;;;;;;;;;;;;;8.57;100.00;100762.91;5055273;28;20003;-85
2023/01/04 00:32:31;;;;;;;;;;;;;;;8.60;100.00;100753.16;5037425;28;19921;-87
2023/01/04 00:34:57;;;;;;;;;;;;;;;8.59;100.00;100750.56;5037415;28;19916;-86
2023/01/04 00:37:22;;;;;;;;;;;;;;;8.65;100.00;100751.28;5046161;28;19920;-85
2023/01/04 00:39:47;;;;;;;;;;;;;;;8.65;100.00;100746.00;5044355;28;20426;-86
2023/01/04 00:42:12;;;;;;;;;;;;;;;8.67;100.00;100749.50;5053778;28;19917;-85
2023/01/04 00:44:38;;;;;;;;;;;;;;;8.65;100.00;100751.28;5058501;28;20334;-87
2023/01/04 00:47:03;;;;;;;;;;;;;;;8.66;100.00;100744.22;5046899;28;19921;-86
2023/01/04 00:49:29;;;;;;;;;;;;;;;8.67;100.00;100744.19;5049896;28;19983;-86
2023/01/04 00:51:54;;;;;;;;;;;;;;;8.70;100.00;100735.34;5065313;28;19960;-86
2023/01/04 00:54:20;;;;;;;;;;;;;;;8.70;100.00;100735.34;5066032;28;19917;-86
2023/01/04 00:56:45;;;;;;;;;;;;;;;8.70;100.00;100730.94;5056968;28;19962;-86
2023/01/04 01:01:57;;;;;;;;;;;;;;;8.72;100.00;100725.63;5043880;28;20471;-86
2023/01/04 01:04:23;;;;;;;;;;;;;;;8.75;100.00;100725.56;5054299;28;19948;-86
2023/01/04 01:06:49;;;;;;;;;;;;;;;8.74;100.00;100718.53;5060220;28;19928;-90
2023/01/04 01:09:15;;;;;;;;;;;;;;;8.80;100.00;100725.47;5052355;28;19921;-86
2023/01/04 01:11:40;;;;;;;;;;;;;;;8.79;100.00;100715.78;5053701;28;20054;-86
2023/01/04 01:14:07;;;;;;;;;;;;;;;8.84;100.00;100705.97;5066971;28;20007;-86
2023/01/04 01:16:32;;;;;;;;;;;;;;;8.82;100.00;100708.69;5070296;28;19928;-86
2023/01/04 01:18:58;;;;;;;;;;;;;;;8.81;100.00;100706.06;5053494;28;19916;-85
2023/01/04 01:21:27;;;;;;;;;;;;;;;8.80;100.00;100707.81;5066711;28;20371;-88
2023/01/04 01:23:53;;;;;;;;;;;;;;;8.82;100.00;100711.34;5068520;28;19935;-86
2023/01/04 01:26:20;;;;;;;;;;;;;;;8.84;100.00;100708.63;5073005;28;19917;-86
2023/01/04 01:28:45;;;;;;;;;;;;;;;8.85;100.00;100711.22;5073248;28;19942;-86
2023/01/04 01:31:17;;;;;;;;;;;;;;;8.83;100.00;100702.47;5071416;28;19928;-87
2023/01/04 01:33:46;;;;;;;;;;;;;;;8.84;100.00;100709.53;5072777;28;19958;-86
2023/01/04 01:36:12;;;;;;;;;;;;;;;8.86;100.00;100702.41;5053330;28;19924;-86
2023/01/04 01:38:38;;;;;;;;;;;;;;;8.84;100.00;100700.69;5070371;28;20051;-86
2023/01/04 01:41:04;;;;;;;;;;;;;;;8.85;100.00;100705.94;5065925;28;20003;-86
2023/01/04 01:43:46;;;;;;;;;;;;;;;8.87;100.00;100703.28;5063409;28;20058;-86
2023/01/04 01:46:12;;;;;;;;;;;;;;;8.86;100.00;100698.91;5056684;28;19928;-87
2023/01/04 01:48:40;;;;;;;;;;;;;;;8.92;100.00;100701.44;5035244;28;20269;-89
2023/01/04 03:19:57;;;;;;;;;;;;;;;8.29;100.00;100600.53;5070701;28;19951;-88
2023/01/04 03:37:03;;;;;;;;;;;;;;;7.22;100.00;100571.75;5072628;28;20401;-93
2023/01/04 03:48:32;;;;;;;;;;;;;;;6.98;100.00;100565.97;5073913;28;20390;-87
2023/01/04 03:51:06;;;;;;;;;;;;;;;6.94;100.00;100560.75;5076478;28;19956;-90
2023/01/04 03:53:34;;;;;;;;;;;;;;;6.95;100.00;100563.38;5076473;28;20002;-89
2023/01/04 03:56:01;;;;;;;;;;;;;;;6.88;100.00;100567.00;5058474;28;19920;-89
2023/01/04 03:58:26;;;;;;;;;;;;;;;6.85;100.00;100553.88;5076216;28;19923;-90
2023/01/04 04:00:52;;;;;;;;;;;;;;;6.78;100.00;100555.75;5058274;28;19917;-90
2023/01/04 04:03:17;;;;;;;;;;;;;;;6.78;100.00;100554.84;5074494;28;19917;-90
2023/01/04 04:08:29;;;;;;;;;;;;;;;6.66;100.00;100548.88;5075787;28;20504;-91
2023/01/04 04:11:29;;;;;;;;;;;;;;;6.67;100.00;100548.00;5075831;28;19921;-91
2023/01/04 04:13:43;;;;;;;;;;;;;;;6.59;100.00;100546.34;5075512;28;19916;-89
2023/01/04 04:16:09;;;;;;;;;;;;;;;6.55;100.00;100553.44;5074697;28;19923;-89
2023/01/04 04:18:34;;;;;;;;;;;;;;;6.51;100.00;100542.09;5075474;28;19995;-90
2023/01/04 04:20:59;;;;;;;;;;;;;;;6.52;100.00;100540.31;5075644;28;19917;-89
2023/01/04 04:23:25;;;;;;;;;;;;;;;6.47;100.00;100544.78;5075514;28;20384;-89
2023/01/04 04:25:50;;;;;;;;;;;;;;;6.46;100.00;100550.94;5075435;28;19916;-91
2023/01/04 04:28:15;;;;;;;;;;;;;;;6.40;100.00;100544.00;5075255;28;19917;-89
2023/01/04 04:30:40;;;;;;;;;;;;;;;6.41;100.00;100536.97;5075521;28;19917;-87
2023/01/04 04:33:06;;;;;;;;;;;;;;;6.36;100.00;100537.88;5056094;28;19916;-93
2023/01/04 04:35:31;;;;;;;;;;;;;;;6.34;100.00;100536.19;5057358;28;19920;-88
2023/01/04 04:37:56;;;;;;;;;;;;;;;6.30;100.00;100535.34;5075160;28;19970;-88
2023/01/04 04:43:06;;;;;;;;;;;;;;;6.23;100.00;100531.06;5075434;28;20350;-88
2023/01/04 04:45:32;;;;;;;;;;;;;;;6.22;100.00;100526.66;5057051;28;19920;-88
2023/01/04 08:59:22;;;;;;;;;;;;;;;8.40;100.00;100444.50;4967180;28;19928;-93
2023/01/04 09:02:00;;;;;;;;;;;;;;;;;;;;;
2023/01/04 09:04:46;;;;;;;;;;;;;;;8.44;100.00;100425.09;5075044;28;19916;-90
2023/01/04 09:07:14;;;;;;;;;;;;;;;8.49;100.00;100433.75;5074706;28;19921;-89
2023/01/04 09:10:18;;;;;;;;;;;;;;;;;;;;;
2023/01/04 09:13:10;;;;;;;;;;;;;;;8.51;100.00;100421.38;5074112;28;19920;-90
2023/01/04 09:18:31;;;;;;;;;;;;;;;8.57;100.00;100424.78;5063716;28;19947;-89
2023/01/04 09:20:57;;;;;;;;;;;;;;;8.60;100.00;100425.59;5074492;28;20010;-88
2023/01/04 09:23:22;;;;;;;;;;;;;;;8.60;100.00;100415.03;5074391;28;19982;-90
2023/01/04 09:25:47;;;;;;;;;;;;;;;8.65;100.00;100412.28;5055465;28;19962;-89
2023/01/04 09:28:30;;;;;;;;;;;;;;;8.68;100.00;100414.81;5056205;28;19938;-88
2023/01/04 09:30:55;;;;;;;;;;;;;;;8.69;100.00;100419.19;5056304;28;19917;-89
2023/01/04 09:33:29;;;;;;;;;;;;;;;8.73;100.00;100418.22;5074175;28;20022;-88
2023/01/04 09:35:55;;;;;;;;;;;;;;;8.70;100.00;100431.50;5074058;28;19935;-88
2023/01/04 09:38:22;;;;;;;;;;;;;;;8.73;100.00;100420.88;5073832;28;19920;-89
2023/01/04 09:40:47;;;;;;;;;;;;;;;8.78;100.00;100424.25;5072529;28;20011;-88
2023/01/04 09:43:17;;;;;;;;;;;;;;;8.78;100.00;100418.97;5074044;28;20012;-88
2023/01/04 09:45:42;;;;;;;;;;;;;;;8.81;100.00;100415.41;5055256;28;19939;-90
2023/01/04 09:48:18;;;;;;;;;;;;;;;8.82;100.00;100419.75;5055949;28;19916;-90
2023/01/04 09:51:12;;;;;;;;;;;;;;;8.83;100.00;100414.44;5056035;28;20410;-89
2023/01/04 09:53:46;;;;;;;;;;;;;;;8.85;100.00;100404.69;5046532;28;19920;-89
2023/01/04 09:56:31;;;;;;;;;;;;;;;8.90;100.00;100416.03;5072578;28;20331;-89
2023/01/04 09:59:19;;;;;;;;;;;;;;;8.90;100.00;100423.94;5055943;28;19916;-89
2023/01/04 10:01:52;;;;;;;;;;;;;;;8.91;100.00;100417.72;5050899;28;19928;-89
2023/01/04 10:04:36;;;;;;;;;;;;;;;8.91;100.00;100414.22;5053977;28;20294;-89
2023/01/04 10:07:04;;;;;;;;;;;;;;;8.95;100.00;100415.00;5054053;28;19940;-94
2023/01/04 10:10:10;;;;;;;;;;;;;;;8.98;100.00;100407.00;5034735;28;19917;-94
2023/01/04 10:16:08;;;;;;;;;;;;;;;8.99;100.00;100414.03;5011840;28;19925;-92
2023/01/04 10:18:56;;;;;;;;;;;;;;;9.02;100.00;100408.66;5054322;28;20386;-90
2023/01/04 10:21:55;;;;;;;;;;;;;;;9.00;100.00;100402.53;5024331;28;20368;-89
2023/01/04 10:24:39;;;;;;;;;;;;;;;9.05;100.00;100400.66;5051809;28;19928;-89
2023/01/04 10:27:20;;;;;;;;;;;;;;;9.03;100.00;100392.78;5052227;28;19935;-90
2023/01/04 10:30:07;;;;;;;;;;;;;;;9.04;100.00;100405.06;5035462;28;19921;-89
2023/01/04 10:32:37;;;;;;;;;;;;;;;9.06;100.00;100402.38;5053326;28;19913;-89
2023/01/04 10:35:15;;;;;;;;;;;;;;;9.07;100.00;100401.47;5049084;28;19928;-89
2023/01/04 10:37:40;;;;;;;;;;;;;;;9.11;100.00;100399.63;5053088;28;20016;-89
2023/01/04 10:40:11;;;;;;;;;;;;;;;9.11;100.00;100399.63;5054225;28;20457;-89
2023/01/04 10:42:43;;;;;;;;;;;;;;;9.11;100.00;100392.56;5055207;28;19912;-89
2023/01/04 10:45:19;;;;;;;;;;;;;;;9.14;100.00;100389.81;5070486;28;20279;-89
2023/01/04 10:48:06;;;;;;;;;;;;;;;9.12;100.00;100380.22;5068076;28;19921;-90
2023/01/04 10:50:43;;;;;;;;;;;;;;;9.12;100.00;100383.72;5042198;28;20374;-90
2023/01/04 10:53:09;;;;;;;;;;;;;;;9.19;100.00;100366.78;5035319;28;20367;-89
2023/01/04 10:56:32;;;;;;;;;;;;;;;;;;;;;
2023/01/04 10:59:15;;;;;;;;;;;;;;;8.93;100.00;100369.25;4999737;28;20855;-90
2023/01/04 11:01:44;;;;;;;;;;;;;;;8.05;100.00;100374.91;4996592;28;20016;-89
2023/01/04 11:04:27;;;;;;;;;;;;;;;7.77;100.00;100369.38;5024364;28;20430;-89
2023/01/04 11:07:01;;;;;;;;;;;;;;;7.59;100.00;100360.97;5035720;28;19939;-93
2023/01/04 11:10:01;;;;;;;;;;;;;;;;;;;;;
2023/01/04 11:12:26;;;;;;;;;;;;;;;7.36;100.00;100361.47;5028143;28;20409;-91
2023/01/04 11:14:52;;;;;;;;;;;;;;;7.28;100.00;100368.66;5016924;28;20004;-90
2023/01/04 11:17:23;;;;;;;;;;;;;;;7.23;100.00;100379.28;5015874;28;19917;-94
2023/01/04 11:19:48;;;;;;;;;;;;;;;7.22;100.00;100371.41;5017361;28;19917;-90
2023/01/04 11:25:30;;;;;;;;;;;;;;;7.15;100.00;100364.50;5033473;28;19975;-92
2023/01/04 11:27:58;;;;;;;;;;;;;;;7.08;100.00;100362.03;5034026;28;19968;-89
2023/01/04 11:30:47;;;;;;;;;;;;;;;7.09;100.00;100349.72;5017911;28;19917;-92
2023/01/04 11:33:16;;;;;;;;;;;;;;;6.98;100.00;100349.91;5015325;28;19917;-89
2023/01/04 11:35:47;;;;;;;;;;;;;;;7.02;100.00;100343.69;5038061;28;19973;-88
2023/01/04 11:38:22;;;;;;;;;;;;;;;7.03;100.00;100334.00;5017602;28;20430;-88
2023/01/04 11:41:18;;;;;;;;;;;;;;;8.57;100.00;100335.84;5034107;28;20092;-92
2023/01/04 11:43:55;;;;;;;;;;;;;;;7.48;100.00;100341.00;5035670;28;19971;-92
2023/01/04 11:49:19;;;;;;;;;;;;;;;7.12;100.00;100338.25;5042497;23;19935;-94
2023/01/04 11:51:44;;;;;;;;;;;;;;;7.05;100.00;100329.56;5058237;28;19969;-89
2023/01/04 11:54:12;;;;;;;;;;;;;;;7.00;100.00;100337.56;5057094;28;19916;-92
2023/01/04 11:56:41;;;;;;;;;;;;;;;6.95;100.00;100333.28;5058204;28;20022;-90
2023/01/04 11:59:30;;;;;;;;;;;;;;;6.92;100.00;100326.31;5058961;28;19952;-91
2023/01/04 12:02:13;;;;;;;;;;;;;;;6.76;100.00;100319.59;5069011;28;20299;-88
2023/01/04 12:04:39;;;;;;;;;;;;;;;6.84;100.00;100317.69;5058064;28;19917;-91
2023/01/04 12:07:12;;;;;;;;;;;;;;;6.87;100.00;100312.38;5075769;28;19917;-91
2023/01/04 12:09:38;;;;;;;;;;;;;;;6.83;100.00;100315.94;5074086;28;19924;-89
2023/01/04 12:12:04;;;;;;;;;;;;;;;6.66;100.00;100293.44;5057843;28;19916;-90
2023/01/04 12:14:31;;;;;;;;;;;;;;;6.77;100.00;100295.00;5075769;28;19916;-91
2023/01/04 12:17:15;;;;;;;;;;;;;;;6.71;100.00;100291.56;5075730;28;20344;-90
2023/01/04 12:19:42;;;;;;;;;;;;;;;6.63;100.00;100282.09;5058874;28;19916;-94
2023/01/04 12:22:19;;;;;;;;;;;;;;;6.55;100.00;100284.88;5058148;28;19966;-91
2023/01/04 12:24:48;;;;;;;;;;;;;;;6.61;100.00;100274.22;5056467;28;19924;-94
2023/01/04 12:27:59;;;;;;;;;;;;;;;6.56;100.00;100268.19;5059214;28;19916;-93
2023/01/04 12:30:40;;;;;;;;;;;;;;;6.46;100.00;100280.66;5078487;28;19917;-91
2023/01/04 12:33:24;;;;;;;;;;;;;;;6.42;100.00;100278.09;5075731;28;19916;-91
2023/01/04 12:36:27;;;;;;;;;;;;;;;6.44;100.00;100273.66;5140177;22;19918;-90
2023/01/04 12:38:57;;;;;;;;;;;;;;;6.39;100.00;100267.63;4977660;28;19985;-90
2023/01/04 12:42:03;;;;;;;;;;;;;;;6.36;100.00;100266.75;5027350;28;19917;-93
2023/01/04 12:44:37;;;;;;;;;;;;;;;6.32;100.00;100251.94;5042026;23;20295;-95
2023/01/04 12:50:09;;;;;;;;;;;;;;;6.30;100.00;100247.59;5035826;28;19951;-92
2023/01/04 12:52:42;;;;;;;;;;;;;;;6.31;100.00;100254.59;5033230;28;21579;-90
2023/01/04 12:55:25;;;;;;;;;;;;;;;6.28;100.00;100254.66;5044272;28;19925;-95
2023/01/04 12:57:50;;;;;;;;;;;;;;;6.30;100.00;100253.75;5035205;28;20009;-91
2023/01/04 13:00:16;;;;;;;;;;;;;;;6.23;100.00;100256.50;5035175;28;20004;-92
2023/01/04 13:05:37;;;;;;;;;;;;;;;6.25;100.00;100250.28;5035614;28;19928;-91
2023/01/04 13:08:07;;;;;;;;;;;;;;;6.17;100.00;100247.81;5035193;28;19917;-91
2023/01/04 13:10:33;;;;;;;;;;;;;;;6.21;100.00;100240.72;5032775;28;19940;-92
2023/01/04 13:12:58;;;;;;;;;;;;;;;6.21;100.00;100251.25;5033692;28;19913;-91
2023/01/04 13:15:34;;;;;;;;;;;;;;;6.20;100.00;100253.91;5035582;28;19932;-89
2023/01/04 13:18:10;;;;;;;;;;;;;;;6.16;100.00;100245.22;5035567;28;19924;-93
2023/01/04 13:20:37;;;;;;;;;;;;;;;6.19;100.00;100237.28;5030736;28;19913;-92
2023/01/04 13:23:03;;;;;;;;;;;;;;;6.15;100.00;100243.47;5034710;28;19928;-88
2023/01/04 13:25:28;;;;;;;;;;;;;;;6.13;100.00;100234.75;5034931;28;19913;-91
2023/01/04 13:27:54;;;;;;;;;;;;;;;6.06;100.00;100228.69;5033050;28;19971;-89
2023/01/04 13:30:29;;;;;;;;;;;;;;;6.08;100.00;100231.28;5035494;28;20284;-92
2023/01/04 13:32:54;;;;;;;;;;;;;;;6.10;100.00;100224.28;5033212;28;20016;-93
2023/01/04 13:35:19;;;;;;;;;;;;;;;6.05;100.00;100220.81;5033473;28;20015;-89
2023/01/04 13:37:46;;;;;;;;;;;;;;;6.01;100.00;100225.28;5033730;28;20276;-90
2023/01/04 13:40:16;;;;;;;;;;;;;;;6.03;100.00;100214.72;5033943;28;20322;-91
2023/01/04 13:42:44;;;;;;;;;;;;;;;5.98;100.00;100210.44;5034381;28;19917;-91
2023/01/04 13:45:12;;;;;;;;;;;;;;;5.96;100.00;100222.72;5046479;28;19927;-90
2023/01/04 13:47:39;;;;;;;;;;;;;;;5.98;100.00;100209.53;5036683;28;20336;-91
2023/01/04 13:50:05;;;;;;;;;;;;;;;5.99;100.00;100206.03;5036475;28;19917;-92
2023/01/04 13:52:30;;;;;;;;;;;;;;;5.94;100.00;100206.06;5053968;28;19916;-91
2023/01/04 13:55:14;;;;;;;;;;;;;;;5.92;100.00;100204.34;5034669;28;19921;-92
2023/01/04 13:57:50;;;;;;;;;;;;;;;5.93;100.00;100195.59;5036110;28;19924;-94
2023/01/04 14:00:16;;;;;;;;;;;;;;;5.96;100.00;100195.53;5053989;28;20007;-93
2023/01/04 14:02:41;;;;;;;;;;;;;;;5.91;100.00;100198.25;5054444;28;20054;-92
2023/01/04 14:05:13;;;;;;;;;;;;;;;5.92;100.00;100192.09;5036512;28;19931;-90
2023/01/04 14:07:41;;;;;;;;;;;;;;;5.92;100.00;100189.47;5036360;28;20008;-94
2023/01/04 14:10:15;;;;;;;;;;;;;;;5.90;100.00;100188.59;5052521;28;19923;-91
2023/01/04 14:12:42;;;;;;;;;;;;;;;5.89;100.00;100186.00;5054880;28;19946;-91
2023/01/04 14:15:16;;;;;;;;;;;;;;;5.90;100.00;100183.34;5036162;28;19951;-90
2023/01/04 14:17:45;;;;;;;;;;;;;;;5.84;100.00;100186.09;5054009;28;19917;-91
2023/01/04 14:20:11;;;;;;;;;;;;;;;5.85;100.00;100192.22;5035530;28;19940;-93
2023/01/04 14:22:38;;;;;;;;;;;;;;;5.81;100.00;100192.28;5053621;28;20007;-92
2023/01/04 14:25:22;;;;;;;;;;;;;;;5.80;100.00;100185.25;5034075;28;19924;-93
2023/01/04 14:27:48;;;;;;;;;;;;;;;5.79;100.00;100178.28;5035658;28;19925;-94
2023/01/04 14:30:19;;;;;;;;;;;;;;;5.80;100.00;100173.88;5053462;28;20345;-93
2023/01/04 14:32:53;;;;;;;;;;;;;;;5.78;100.00;100173.06;5054623;28;20347;-94
2023/01/04 14:35:50;;;;;;;;;;;;;;;5.82;100.00;100183.50;5230667;23;19920;-94
2023/01/04 14:38:17;;;;;;;;;;;;;;;5.75;100.00;100181.84;5015289;28;19933;-93
2023/01/04 14:40:42;;;;;;;;;;;;;;;5.78;100.00;100186.19;5031246;28;20006;-95
2023/01/04 14:43:27;;;;;;;;;;;;;;;5.80;100.00;100173.88;5012885;28;19918;-93
2023/01/04 14:45:52;;;;;;;;;;;;;;;5.83;100.00;100171.22;5006527;28;19921;-93
2023/01/04 14:54:10;;;;;;;;;;;;;;;5.70;100.00;100161.81;5047270;22;20308;-93
2023/01/04 14:57:08;;;;;;;;;;;;;;;5.70;100.00;100161.81;4996962;28;20028;-96
2023/01/04 15:02:12;;;;;;;;;;;;;;;5.75;100.00;100160.81;5282551;22;19929;-94
2023/01/04 15:04:41;;;;;;;;;;;;;;;5.72;100.00;100160.88;5011676;23;19929;-91
2023/01/04 15:07:39;;;;;;;;;;;;;;;;;;;;;
2023/01/04 15:10:44;;;;;;;;;;;;;;;5.72;100.00;100160.88;5013124;28;19924;-93
2023/01/04 15:17:31;;;;;;;;;;;;;;;;;;;;;
2023/01/04 15:20:37;;;;;;;;;;;;;;;5.74;100.00;100147.69;5093951;23;19933;-93
2023/01/04 15:23:46;;;;;;;;;;;;;;;5.74;100.00;100150.31;5019785;28;19924;-91
2023/01/04 15:26:42;;;;;;;;;;;;;;;;;;;;;
2023/01/04 15:29:30;;;;;;;;;;;;;;;;;;;;;
2023/01/04 15:32:40;;;;;;;;;;;;;;;;;;;;;
2023/01/04 15:35:52;;;;;;;;;;;;;;;;;;;;;
2023/01/04 15:45:38;;;;;;;;;;;;;;;5.74;100.00;100150.31;5058018;28;19923;-96
2023/01/04 15:47:42;;;;;;;;;;;;;;;5.70;100.00;100140.78;5184594;22;19956;-91
2023/01/04 15:50:07;;;;;;;;;;;;;;;5.73;100.00;100156.50;5036570;28;19921;-92
2023/01/04 15:52:33;;;;;;;;;;;;;;;5.78;100.00;100144.13;5039103;23;19932;-92
2023/01/04 15:55:04;;;;;;;;;;;;;;;5.71;100.00;100145.09;5047504;23;20295;-91
2023/01/04 15:57:51;;;;;;;;;;;;;;;5.72;100.00;100136.34;5038241;28;19979;-91
2023/01/04 16:00:46;;;;;;;;;;;;;;;5.75;100.00;100145.03;5027686;28;19927;-92
2023/01/04 16:03:14;;;;;;;;;;;;;;;5.71;100.00;100139.84;5024156;28;19917;-92
2023/01/04 16:08:05;;;;;;;;;;;;;;;5.70;100.00;100115.34;5076248;23;19972;-92
2023/01/04 16:10:30;;;;;;;;;;;;;;;5.69;100.00;100125.88;5026784;28;19917;-92
2023/01/04 16:12:56;;;;;;;;;;;;;;;5.77;100.00;100126.59;5018942;28;19960;-90
2023/01/04 16:15:22;;;;;;;;;;;;;;;5.74;100.00;100122.25;5035682;28;20291;-90
2023/01/04 16:17:55;;;;;;;;;;;;;;;5.70;100.00;100132.88;5042002;28;19995;-91
2023/01/04 16:20:21;;;;;;;;;;;;;;;5.70;100.00;100132.88;5026426;28;19921;-89
2023/01/04 16:22:49;;;;;;;;;;;;;;;5.79;100.00;100135.31;5035649;28;19917;-88
2023/01/04 16:25:24;;;;;;;;;;;;;;;5.81;100.00;100142.31;5046119;28;19927;-89
2023/01/04 16:27:50;;;;;;;;;;;;;;;5.73;100.00;100143.34;5016020;28;19925;-89
2023/01/04 16:30:15;;;;;;;;;;;;;;;5.70;100.00;100146.03;5016770;28;19917;-89
2023/01/04 16:32:44;;;;;;;;;;;;;;;5.72;100.00;100145.09;5016857;28;19917;-88
2023/01/04 16:35:41;;;;;;;;;;;;;;;5.69;100.00;100144.28;5016484;28;19917;-91
2023/01/04 16:38:07;;;;;;;;;;;;;;;5.74;100.00;100153.81;5033374;28;19917;-92
2023/01/04 16:40:51;;;;;;;;;;;;;;;5.70;100.00;100148.66;5033711;28;19954;-94
2023/01/04 16:43:16;;;;;;;;;;;;;;;5.71;100.00;100147.75;5020131;28;19917;-91
2023/01/04 16:45:41;;;;;;;;;;;;;;;5.78;100.00;100149.38;5014784;28;19921;-96
2023/01/04 16:48:18;;;;;;;;;;;;;;;;;;;;;
2023/01/04 16:53:46;;;;;;;;;;;;;;;5.73;100.00;100135.47;5080906;23;20390;-89
2023/01/04 16:56:15;;;;;;;;;;;;;;;5.76;100.00;100138.00;5064565;28;19916;-88
2023/01/04 16:58:43;;;;;;;;;;;;;;;5.66;100.00;100139.94;5039570;28;20003;-95
2023/01/04 17:01:10;;;;;;;;;;;;;;;5.74;100.00;100139.81;5057245;28;19922;-93
2023/01/04 17:03:35;;;;;;;;;;;;;;;5.70;100.00;100146.88;5060245;28;20279;-90
2023/01/04 17:06:08;;;;;;;;;;;;;;;5.69;100.00;100133.75;5076261;28;19924;-96
2023/01/04 17:08:40;;;;;;;;;;;;;;;5.63;100.00;100146.13;5055230;28;20375;-95
2023/01/04 17:11:23;;;;;;;;;;;;;;;5.64;100.00;100146.97;5042465;28;19917;-96
2023/01/04 17:13:48;;;;;;;;;;;;;;;5.62;100.00;100133.00;5044488;28;19949;-94
2023/01/04 17:16:14;;;;;;;;;;;;;;;5.62;100.00;100127.75;5057819;28;19924;-92
2023/01/04 17:18:39;;;;;;;;;;;;;;;5.68;100.00;100132.91;5039935;28;19944;-92
2023/01/04 17:21:25;;;;;;;;;;;;;;;5.62;100.00;100123.34;5047908;28;19917;-93
2023/01/04 17:27:01;;;;;;;;;;;;;;;5.64;100.00;100124.19;4985657;28;20563;-94
2023/01/04 17:29:32;;;;;;;;;;;;;;;5.65;100.00;100127.69;4993647;28;19933;-90
2023/01/04 17:35:03;;;;;;;;;;;;;;;5.61;100.00;100121.59;4915861;29;19958;-90
2023/01/04 17:38:41;;;;;;;;;;;;;;;5.59;100.00;100110.25;4988389;28;19917;-91
2023/01/04 17:44:08;;;;;;;;;;;;;;;5.55;100.00;100116.47;5110127;22;19932;-92
2023/01/04 17:47:06;;;;;;;;;;;;;;;5.56;100.00;100127.84;5030432;23;19942;-91
2023/01/04 17:52:10;;;;;;;;;;;;;;;5.54;100.00;100114.72;5053250;28;19932;-93
2023/01/04 17:54:44;;;;;;;;;;;;;;;5.53;100.00;100122.63;5035761;28;19917;-92
2023/01/04 17:57:21;;;;;;;;;;;;;;;5.58;100.00;100111.13;5029308;28;19928;-93
2023/01/04 17:59:58;;;;;;;;;;;;;;;5.56;100.00;100123.44;5019611;28;19997;-94
2023/01/04 18:09:05;;;;;;;;;;;;;;;5.55;100.00;100126.09;4957515;28;19922;-90
2023/01/04 18:11:30;;;;;;;;;;;;;;;5.56;100.00;100122.59;5013914;28;20758;-90
2023/01/04 18:13:56;;;;;;;;;;;;;;;5.52;100.00;100121.78;5033932;28;19924;-94
2023/01/04 18:16:24;;;;;;;;;;;;;;;5.59;100.00;100115.50;5019353;28;19917;-90
2023/01/04 18:18:49;;;;;;;;;;;;;;;5.57;100.00;100121.72;5016152;28;20008;-92
2023/01/04 18:21:47;;;;;;;;;;;;;;;5.58;100.00;100108.50;5016564;28;19960;-92
2023/01/04 18:26:39;;;;;;;;;;;;;;;5.62;100.00;100102.31;5328437;23;19928;-90
2023/01/04 18:29:23;;;;;;;;;;;;;;;5.59;100.00;100112.03;5059600;28;19969;-93
2023/01/04 18:34:38;;;;;;;;;;;;;;;5.54;100.00;100113.88;5661446;23;19925;-92
2023/01/04 18:39:54;;;;;;;;;;;;;;;5.57;100.00;100106.78;5166059;23;20295;-94
2023/01/04 18:42:41;;;;;;;;;;;;;;;;;;;;;
2023/01/04 18:45:07;;;;;;;;;;;;;;;5.59;100.00;100125.16;5074563;28;19923;-91
2023/01/04 18:47:32;;;;;;;;;;;;;;;5.52;100.00;100116.53;5056119;28;20058;-89
2023/01/04 18:50:03;;;;;;;;;;;;;;;5.55;100.00;100116.47;5070751;28;19920;-92
2023/01/04 18:52:49;;;;;;;;;;;;;;;5.55;100.00;100120.84;5048951;28;20383;-93
2023/01/04 19:01:28;;;;;;;;;;;;;;;5.56;100.00;100115.56;5028769;28;20016;-93
2023/01/04 19:04:20;;;;;;;;;;;;;;;;;;;;;
2023/01/04 19:06:45;;;;;;;;;;;;;;;5.67;100.00;100119.78;5056437;28;20003;-92
2023/01/04 19:09:10;;;;;;;;;;;;;;;6.61;100.00;100110.97;5051864;28;20435;-90
2023/01/04 19:11:36;;;;;;;;;;;;;;;6.04;100.00;100119.16;5053533;28;19920;-90
2023/01/04 19:14:02;;;;;;;;;;;;;;;5.87;100.00;100114.16;5053637;28;19986;-91
2023/01/04 19:16:29;;;;;;;;;;;;;;;5.84;100.00;100128.25;5031801;28;20346;-93
2023/01/04 19:18:56;;;;;;;;;;;;;;;5.73;100.00;100112.66;5036328;28;19924;-90
2023/01/04 19:21:21;;;;;;;;;;;;;;;5.72;100.00;100124.06;5036076;28;19957;-89
2023/01/04 19:26:43;;;;;;;;;;;;;;;5.74;100.00;100116.13;5036461;28;20322;-91
2023/01/04 19:29:10;;;;;;;;;;;;;;;5.74;100.00;100111.72;5035449;28;19917;-88
2023/01/04 19:31:36;;;;;;;;;;;;;;;5.70;100.00;100132.88;5036489;28;19917;-88
2023/01/04 19:34:01;;;;;;;;;;;;;;;5.70;100.00;100125.84;5036606;28;19917;-91
2023/01/04 19:36:27;;;;;;;;;;;;;;;5.71;100.00;100121.44;5036235;28;20430;-91
2023/01/04 19:38:58;;;;;;;;;;;;;;;5.71;100.00;100117.06;5035427;28;19920;-92
2023/01/04 19:41:26;;;;;;;;;;;;;;;5.73;100.00;100123.16;5036558;28;19956;-89
2023/01/04 19:43:51;;;;;;;;;;;;;;;5.69;100.00;100128.50;5035356;28;19971;-89
2023/01/04 19:46:17;;;;;;;;;;;;;;;5.68;100.00;100134.66;5036327;28;19921;-89
2023/01/04 19:48:42;;;;;;;;;;;;;;;5.70;100.00;100130.25;5036415;28;19984;-89
2023/01/04 19:51:13;;;;;;;;;;;;;;;5.70;100.00;100140.78;5035111;28;19963;-88
2023/01/04 19:53:38;;;;;;;;;;;;;;;5.69;100.00;100134.63;5035905;28;19923;-87
2023/01/04 19:56:04;;;;;;;;;;;;;;;5.72;100.00;100139.81;5039202;28;20008;-88
2023/01/04 19:58:29;;;;;;;;;;;;;;;5.80;100.00;100137.06;5045748;28;19945;-91
2023/01/04 20:00:55;;;;;;;;;;;;;;;5.69;100.00;100134.63;5037014;28;20381;-90
2023/01/04 20:03:21;;;;;;;;;;;;;;;5.69;100.00;100139.88;5036165;28;19991;-88
2023/01/04 20:05:46;;;;;;;;;;;;;;;5.63;100.00;100140.88;5036151;28;19921;-90
2023/01/04 20:08:12;;;;;;;;;;;;;;;5.68;100.00;100137.28;5035725;28;19987;-89
2023/01/04 20:10:37;;;;;;;;;;;;;;;5.61;100.00;100142.63;5033793;28;19917;-89
2023/01/04 20:13:02;;;;;;;;;;;;;;;5.67;100.00;100125.91;5034870;28;19917;-88
2023/01/04 20:15:27;;;;;;;;;;;;;;;5.63;100.00;100121.56;5035876;28;20360;-89
2023/01/04 20:17:53;;;;;;;;;;;;;;;5.67;100.00;100114.53;5035857;28;20381;-91
2023/01/04 20:20:18;;;;;;;;;;;;;;;5.66;100.00;100108.38;5035966;28;19917;-92
2023/01/04 20:22:43;;;;;;;;;;;;;;;5.58;100.00;100123.41;5035776;28;20376;-87
2023/01/04 20:25:09;;;;;;;;;;;;;;;5.58;100.00;100126.06;5034643;28;20280;-88
2023/01/04 20:27:35;;;;;;;;;;;;;;;5.62;100.00;100120.72;5034319;28;19924;-92
2023/01/04 20:30:00;;;;;;;;;;;;;;;5.60;100.00;100114.63;5034499;28;19921;-89
2023/01/04 20:32:26;;;;;;;;;;;;;;;5.62;100.00;100128.59;5035089;28;19917;-89
2023/01/04 20:34:51;;;;;;;;;;;;;;;5.59;100.00;100123.41;5034427;28;19921;-89
2023/01/04 20:37:16;;;;;;;;;;;;;;;5.56;100.00;100123.44;5034260;28;20011;-89
2023/01/04 20:39:42;;;;;;;;;;;;;;;5.58;100.00;100115.53;5034291;28;19956;-89
2023/01/04 20:44:51;;;;;;;;;;;;;;;5.58;100.00;100105.03;5035735;28;19928;-87
2023/01/04 20:47:19;;;;;;;;;;;;;;;5.60;100.00;100113.75;5042857;28;19921;-87
2023/01/04 20:49:47;;;;;;;;;;;;;;;5.57;100.00;100109.41;5055089;28;19917;-93
2023/01/04 20:52:12;;;;;;;;;;;;;;;5.60;100.00;100106.75;5037882;28;19920;-88